Decoded Metar for UAKD (DZHEZKAZGAN in KAZAKHSTAN) (IATA:DZH) | Meteo·Mobile Aviation Weather
aviador You're here:

UAKD Decoded Metar

DZHEZKAZGAN in KAZAKHSTAN
Report Time2019-10-21 06:30:00
UTC Time2019-10-21 07:09:19
Flight Rules vfr VFR
Wind060° at 10 kt
W.Decomp.*RWY 04: 9.7 kt HW 2.2 kt RCW
Visibility9999 m
Phenomena:N/A
Clouds:N/A
Expected CloudBase > 4,000 ft AGL from Temp-Dew spread
CeilingNone
Temp01°C (ISA -12)
Dew Point-9°C (48% RH)
AAT-5.6°C
QNH1031 hPa
Density Alt-712 ft
Elevation1,249 ft
Report Wrong Elevation
Raw Report
UAKD 210630Z 06005MPS CAVOK 01/M09 Q1031 R04/0///65 NOSIG RMK
QFE739/0986=

Extra information for UAKD:More info

Metar Taf Metar & Taf Last 4 Metars F.Rules Stats Wind Profile Meteogram Temp Stats Airport Information Weather charts Add Link Nearby VenuesMetar ALERT Operation Metar Decoded Social comments